Time;durP1;ratioP1;P1;durP2;ratioP2;P2;SDS_P1;SDS_P2;PMS_P1;PMS_P2;Temp;Humidity;BMP_temperature;BMP_pressure;BME280_temperature;BME280_humidity;BME280_pressure;Samples;Min_cycle;Max_cycle;Signal;HPM_P1;HPM_P2
2022/06/23 00:00:09;;;;;;;2.10;2.00;;;;;;;18.82;53.10;100535.03;5075023;28;20239;-77
2022/06/23 00:02:39;;;;;;;3.33;1.90;;;;;;;18.84;53.43;100518.13;5074937;28;20255;-77
2022/06/23 00:05:14;;;;;;;2.40;1.93;;;;;;;18.87;53.59;100524.19;5074575;28;20209;-76
2022/06/23 00:07:45;;;;;;;2.20;2.00;;;;;;;18.80;53.16;100543.03;5074604;28;20204;-77
2022/06/23 00:10:17;;;;;;;3.83;2.63;;;;;;;18.80;52.75;100561.53;5072255;28;20263;-77
2022/06/23 00:12:44;;;;;;;2.00;1.83;;;;;;;18.74;53.48;100553.03;5074814;28;20215;-77
2022/06/23 00:15:27;;;;;;;2.17;2.07;;;;;;;18.71;54.13;100553.19;5075083;28;20215;-77
2022/06/23 00:18:00;;;;;;;3.93;2.37;;;;;;;18.65;53.95;100530.56;5074424;28;20205;-77
2022/06/23 00:20:32;;;;;;;3.70;2.43;;;;;;;18.57;54.73;100517.75;5074729;28;20221;-77
2022/06/23 00:23:06;;;;;;;3.10;2.30;;;;;;;18.45;55.05;100508.66;5074341;28;20291;-77
2022/06/23 00:25:43;;;;;;;2.50;2.37;;;;;;;18.47;54.82;100508.56;5074306;28;20737;-77
2022/06/23 00:28:17;;;;;;;2.57;2.37;;;;;;;18.39;55.29;100508.09;5074170;28;20277;-77
2022/06/23 00:30:45;;;;;;;3.07;2.73;;;;;;;18.32;55.55;100502.28;5074603;28;20282;-77
2022/06/23 00:33:20;;;;;;;2.83;2.53;;;;;;;18.32;55.48;100498.78;5074694;28;20200;-77
2022/06/23 00:35:47;;;;;;;2.63;2.43;;;;;;;18.21;55.80;100484.28;5074421;28;20204;-77
2022/06/23 00:38:20;;;;;;;2.60;2.40;;;;;;;18.19;55.65;100483.50;5071548;28;20667;-77
2022/06/23 00:40:47;;;;;;;3.33;2.60;;;;;;;18.18;55.50;100481.81;5073990;28;20228;-77
2022/06/23 00:43:14;;;;;;;2.80;2.60;;;;;;;18.12;55.73;100474.19;5074307;28;20283;-77
2022/06/23 00:45:49;;;;;;;3.00;2.80;;;;;;;18.01;56.25;100471.22;5074055;28;20274;-77
2022/06/23 00:48:19;;;;;;;3.50;2.77;;;;;;;17.99;56.42;100455.44;5072962;28;20744;-77
2022/06/23 00:50:50;;;;;;;2.70;2.50;;;;;;;18.01;56.40;100458.88;5073755;28;20228;-77
2022/06/23 00:53:23;;;;;;;3.30;2.60;;;;;;;18.01;56.53;100461.50;5074066;28;20567;-77
2022/06/23 00:55:57;;;;;;;3.00;2.80;;;;;;;17.96;56.60;100460.91;5073745;28;20740;-77
2022/06/23 00:58:33;;;;;;;3.10;2.80;;;;;;;17.97;56.64;100462.59;5073749;28;20196;-76
2022/06/23 01:01:06;;;;;;;3.03;2.83;;;;;;;17.91;56.80;100465.53;5074066;28;20206;-77
2022/06/23 01:03:39;;;;;;;4.33;2.80;;;;;;;17.84;57.00;100465.00;5073786;28;20227;-77
2022/06/23 01:06:13;;;;;;;3.57;3.30;;;;;;;17.77;57.38;100460.06;5073910;28;20209;-77
2022/06/23 01:08:47;;;;;;;3.27;3.07;;;;;;;17.77;57.34;100452.97;5071005;28;20241;-77
2022/06/23 01:11:22;;;;;;;3.00;2.80;;;;;;;17.76;57.66;100453.91;5073357;28;20201;-77
2022/06/23 01:13:56;;;;;;;3.17;2.90;;;;;;;17.74;58.07;100455.78;5073644;28;20215;-77
2022/06/23 01:16:28;;;;;;;3.77;3.47;;;;;;;17.63;57.98;100435.16;5073596;28;20212;-77
2022/06/23 01:18:58;;;;;;;3.50;3.20;;;;;;;17.55;58.28;100445.25;5073511;28;20281;-77
2022/06/23 01:21:29;;;;;;;3.40;3.20;;;;;;;17.49;58.97;100436.78;5073664;28;20273;-77
2022/06/23 01:24:19;;;;;;;3.20;2.90;;;;;;;17.51;59.47;100403.25;5073106;28;20765;-77
2022/06/23 01:27:18;;;;;;;3.60;3.10;;;;;;;17.34;60.26;100388.22;5073046;28;20208;-77
2022/06/23 01:29:51;;;;;;;3.60;3.30;;;;;;;17.27;60.56;100380.59;5061214;28;20250;-77
2022/06/23 01:32:22;;;;;;;3.20;3.00;;;;;;;17.31;60.15;100380.47;5073234;28;20211;-77
2022/06/23 01:34:53;;;;;;;3.20;3.00;;;;;;;17.30;60.59;100382.22;5073487;28;20258;-77
2022/06/23 01:37:24;;;;;;;4.00;3.20;;;;;;;17.29;60.55;100375.25;5073298;28;20201;-77
2022/06/23 01:40:00;;;;;;;3.50;3.30;;;;;;;17.27;60.27;100382.38;5062400;28;20228;-77
2022/06/23 01:42:38;;;;;;;3.60;3.40;;;;;;;17.17;61.12;100368.78;5072836;28;20235;-77
2022/06/23 01:45:12;;;;;;;3.80;3.50;;;;;;;17.16;61.38;100372.31;5072909;28;20220;-77
2022/06/23 01:47:47;;;;;;;4.00;3.70;;;;;;;16.95;62.12;100357.53;5072797;28;20277;-77
2022/06/23 01:50:29;;;;;;;3.87;3.57;;;;;;;16.72;62.89;100322.50;5072860;28;20272;-77
2022/06/23 01:53:12;;;;;;;3.83;3.33;;;;;;;16.83;62.73;100307.06;5072917;28;20640;-77
2022/06/23 01:56:03;;;;;;;4.07;3.27;;;;;;;16.96;62.38;100319.69;5072945;28;20284;-77
2022/06/23 01:58:39;;;;;;;3.73;3.43;;;;;;;16.93;62.35;100323.31;5072591;28;20709;-77
2022/06/23 02:01:14;;;;;;;4.47;3.87;;;;;;;16.96;62.09;100338.13;5072662;28;20211;-77
2022/06/23 02:03:47;;;;;;;4.30;3.97;;;;;;;16.97;62.03;100347.78;5073012;28;20224;-77
2022/06/23 02:06:20;;;;;;;4.37;4.00;;;;;;;16.90;62.19;100348.97;5072804;28;20231;-76
2022/06/23 02:08:51;;;;;;;3.70;3.40;;;;;;;16.86;62.33;100357.00;5064145;28;20694;-76
2022/06/23 02:11:25;;;;;;;3.73;3.53;;;;;;;16.73;62.48;100355.84;5062562;28;20231;-77
2022/06/23 02:13:58;;;;;;;4.30;3.90;;;;;;;16.60;63.25;100339.72;5072357;28;20218;-77
2022/06/23 02:16:33;;;;;;;4.00;3.67;;;;;;;16.51;64.41;100319.09;5072602;28;20223;-77
2022/06/23 02:19:08;;;;;;;4.10;3.80;;;;;;;16.51;64.53;100305.03;5072121;28;20238;-76
2022/06/23 02:21:44;;;;;;;4.73;4.03;;;;;;;16.46;64.68;100286.81;5072483;28;20215;-77
2022/06/23 02:24:18;;;;;;;3.50;3.20;;;;;;;16.55;64.32;100303.97;5072404;28;20237;-77
2022/06/23 02:27:02;;;;;;;5.30;3.90;;;;;;;16.48;64.40;100301.63;5072379;28;20215;-77
2022/06/23 02:29:34;;;;;;;3.93;3.50;;;;;;;16.43;64.54;100300.13;5071953;28;20258;-77
2022/06/23 02:32:11;;;;;;;4.07;3.67;;;;;;;16.40;65.03;100293.22;5072251;28;20211;-77
2022/06/23 02:34:44;;;;;;;3.83;3.53;;;;;;;16.39;64.67;100303.81;5072393;28;20230;-77
2022/06/23 02:37:49;;;;;;;4.00;3.70;;;;;;;16.40;64.77;100300.28;5072491;28;20254;-77
2022/06/23 02:40:20;;;;;;;4.20;3.90;;;;;;;16.33;64.44;100306.72;5070251;28;20592;-77
2022/06/23 02:42:53;;;;;;;4.53;4.23;;;;;;;16.30;63.52;100339.34;5072164;28;20864;-77
2022/06/23 02:45:53;;;;;;;4.60;4.20;;;;;;;16.22;63.97;100357.25;5072065;28;20243;-77
2022/06/23 02:48:47;;;;;;;4.87;3.63;;;;;;;16.22;64.56;100329.13;5067886;28;20256;-77
2022/06/23 02:51:24;;;;;;;3.93;3.63;;;;;;;16.24;64.83;100319.38;5071909;28;20692;-77
2022/06/23 02:54:05;;;;;;;3.50;3.20;;;;;;;16.32;64.51;100318.22;5072159;28;20235;-77
2022/06/23 02:56:50;;;;;;;4.17;3.77;;;;;;;16.32;64.37;100334.00;5071883;28;20215;-77
2022/06/23 02:59:30;;;;;;;3.77;3.47;;;;;;;16.34;64.30;100326.91;5071629;28;20289;-77
2022/06/23 03:02:00;;;;;;;4.37;3.97;;;;;;;16.33;64.46;100328.66;5073011;28;20283;-77
2022/06/23 03:04:32;;;;;;;3.73;3.50;;;;;;;16.34;64.14;100330.38;5072890;28;20231;-77
2022/06/23 03:07:06;;;;;;;3.87;3.63;;;;;;;16.36;64.41;100323.25;5073628;28;20242;-77
2022/06/23 03:09:39;;;;;;;4.03;3.73;;;;;;;16.35;63.69;100347.91;5061170;28;20273;-77
2022/06/23 03:12:12;;;;;;;3.57;3.37;;;;;;;16.33;63.57;100362.03;5072034;28;20227;-77
2022/06/23 03:14:49;;;;;;;3.63;3.40;;;;;;;16.27;64.41;100342.97;5071992;28;20208;-77
2022/06/23 03:17:21;;;;;;;3.33;3.03;;;;;;;16.17;64.36;100344.28;5072106;28;20207;-77
2022/06/23 03:19:59;;;;;;;4.37;3.40;;;;;;;16.16;64.34;100339.94;5071825;28;20224;-77
2022/06/23 03:22:31;;;;;;;3.40;3.10;;;;;;;16.13;64.44;100344.47;5072139;28;20212;-77
2022/06/23 03:25:03;;;;;;;4.63;3.27;;;;;;;15.94;65.32;100341.81;5072078;28;20231;-77
2022/06/23 03:27:35;;;;;;;3.83;3.53;;;;;;;16.02;65.09;100337.91;5071418;28;20204;-77
2022/06/23 03:30:05;;;;;;;3.43;3.13;;;;;;;16.04;65.87;100354.50;5071538;28;20635;-77
2022/06/23 03:32:35;;;;;;;3.40;3.20;;;;;;;16.03;65.91;100322.97;5072156;28;20212;-77
2022/06/23 03:35:13;;;;;;;3.93;3.63;;;;;;;16.13;66.26;100262.84;5072158;28;20266;-77
2022/06/23 03:37:47;;;;;;;3.73;3.40;;;;;;;15.68;64.59;100359.50;5071710;28;20212;-77
2022/06/23 03:43:13;;;;;;;4.20;3.27;;;;;;;15.96;64.60;100379.44;5071837;28;20585;-77
2022/06/23 03:45:45;;;;;;;3.73;3.43;;;;;;;16.01;64.56;100388.00;5071730;28;20219;-77
2022/06/23 03:48:16;;;;;;;3.30;3.00;;;;;;;16.11;65.74;100352.44;5071781;28;20216;-77
2022/06/23 03:50:48;;;;;;;4.27;3.83;;;;;;;16.15;64.10;100385.63;5071600;28;20251;-77
2022/06/23 03:53:19;;;;;;;4.07;3.50;;;;;;;16.13;64.43;100405.91;5071605;28;20234;-77
2022/06/23 03:55:49;;;;;;;4.67;4.27;;;;;;;15.99;65.21;100393.31;5071689;28;20263;-77
2022/06/23 03:58:20;;;;;;;4.10;3.70;;;;;;;16.05;64.96;100387.81;5071786;28;20205;-77
2022/06/23 04:00:57;;;;;;;4.90;3.60;;;;;;;15.99;65.77;100385.41;5071803;28;20236;-77
2022/06/23 04:03:29;;;;;;;3.63;3.33;;;;;;;15.95;66.05;100372.47;5071742;28;20619;-77
2022/06/23 04:06:21;;;;;;;3.70;3.40;;;;;;;15.88;66.95;100349.03;5071690;28;20231;-77
2022/06/23 04:09:01;;;;;;;4.10;3.33;;;;;;;15.85;67.21;100335.97;5069048;28;20209;-77
2022/06/23 04:11:43;;;;;;;4.80;3.87;;;;;;;15.85;67.48;100340.41;5071136;28;20869;-77
2022/06/23 04:14:14;;;;;;;4.03;3.70;;;;;;;15.92;66.42;100338.38;5071530;28;20298;-76
2022/06/23 04:16:41;;;;;;;5.03;4.63;;;;;;;15.98;64.80;100382.88;5071703;28;20257;-77
2022/06/23 04:19:18;;;;;;;4.77;4.37;;;;;;;16.04;63.94;100420.31;5071272;28;20627;-77
2022/06/23 04:21:50;;;;;;;9.63;5.33;;;;;;;16.11;63.43;100441.13;5070682;28;20562;-77
2022/06/23 04:24:21;;;;;;;5.97;5.37;;;;;;;16.04;64.76;100451.06;5075155;28;20238;-77
2022/06/23 04:26:52;;;;;;;7.70;5.43;;;;;;;15.96;66.02;100417.16;5074900;28;20208;-76
2022/06/23 04:29:24;;;;;;;4.70;4.37;;;;;;;15.98;66.27;100390.78;5074333;28;20722;-77
2022/06/23 04:31:54;;;;;;;4.70;4.13;;;;;;;16.02;66.31;100382.66;5075076;28;20204;-77
2022/06/23 04:34:23;;;;;;;3.60;3.30;;;;;;;16.08;66.69;100377.13;5074718;28;20232;-77
2022/06/23 04:36:51;;;;;;;3.97;3.70;;;;;;;16.06;67.66;100360.56;5074693;28;20257;-77
2022/06/23 04:39:22;;;;;;;4.00;3.70;;;;;;;16.15;67.32;100354.03;5072115;28;20326;-77
2022/06/23 04:41:54;;;;;;;4.57;3.90;;;;;;;16.10;68.25;100342.00;5074540;28;20204;-77
2022/06/23 04:44:25;;;;;;;4.00;3.80;;;;;;;16.16;67.98;100336.47;5074492;28;20574;-77
2022/06/23 04:46:56;;;;;;;3.83;3.53;;;;;;;16.28;68.02;100335.91;5074504;28;20274;-77
2022/06/23 04:49:26;;;;;;;3.43;3.23;;;;;;;16.36;68.07;100336.44;5074280;28;20607;-77
2022/06/23 04:51:59;;;;;;;4.17;3.87;;;;;;;16.53;70.52;100298.78;5074735;28;20216;-77
2022/06/23 04:54:30;;;;;;;3.90;3.60;;;;;;;16.62;70.19;100302.78;5074465;28;20212;-77
2022/06/23 04:57:11;;;;;;;4.20;3.50;;;;;;;16.68;70.23;100284.03;5074145;28;20757;-77
2022/06/23 04:59:41;;;;;;;4.97;4.17;;;;;;;16.51;67.10;100355.97;5074158;28;20258;-77
2022/06/23 05:02:23;;;;;;;4.93;4.43;;;;;;;16.56;67.01;100369.78;5074439;28;20207;-77
2022/06/23 05:04:55;;;;;;;5.20;4.80;;;;;;;16.58;66.90;100393.44;5074097;28;20265;-77
2022/06/23 05:07:29;;;;;;;5.10;4.73;;;;;;;16.63;66.39;100405.50;5074139;28;20212;-77
2022/06/23 05:09:58;;;;;;;4.43;4.03;;;;;;;16.67;66.57;100408.84;5071753;28;20223;-77
2022/06/23 05:12:28;;;;;;;4.50;3.93;;;;;;;16.72;66.18;100414.75;5073515;28;20611;-77
2022/06/23 05:15:00;;;;;;;5.07;3.77;;;;;;;16.79;66.40;100410.94;5074083;28;20211;-77
2022/06/23 05:17:32;;;;;;;3.57;3.30;;;;;;;16.87;66.39;100411.47;5073994;28;20247;-76
2022/06/23 05:20:02;;;;;;;3.93;3.53;;;;;;;16.95;67.96;100379.47;5073826;28;20221;-77
2022/06/23 05:22:34;;;;;;;4.13;3.77;;;;;;;17.01;66.95;100373.91;5074351;28;20214;-78
2022/06/23 05:25:20;;;;;;;4.70;4.10;;;;;;;17.03;65.08;100416.03;5073507;28;20224;-77
2022/06/23 05:27:50;;;;;;;5.37;4.37;;;;;;;17.07;64.98;100450.09;5073333;28;20208;-77
2022/06/23 05:30:26;;;;;;;5.07;4.63;;;;;;;17.16;64.65;100456.72;5073947;28;20252;-77
2022/06/23 05:32:56;;;;;;;5.30;4.90;;;;;;;17.24;65.25;100451.09;5073754;28;20205;-77
2022/06/23 05:35:27;;;;;;;8.23;5.23;;;;;;;17.32;65.49;100454.25;5069558;28;20213;-79
2022/06/23 05:38:00;;;;;;;5.00;4.60;;;;;;;17.38;65.44;100445.19;5066477;28;20238;-78
2022/06/23 05:40:30;;;;;;;6.13;4.83;;;;;;;17.45;64.44;100473.84;5068180;28;20238;-78
2022/06/23 05:43:00;;;;;;;5.70;5.20;;;;;;;17.53;64.27;100488.47;5065803;28;20606;-78
2022/06/23 05:45:30;;;;;;;5.13;4.73;;;;;;;17.57;64.62;100474.22;5063259;28;20221;-78
2022/06/23 05:47:59;;;;;;;5.00;4.60;;;;;;;17.64;64.58;100473.84;5064828;28;20351;-79
2022/06/23 05:50:29;;;;;;;4.87;4.37;;;;;;;17.71;64.16;100478.84;5066066;28;20220;-79
2022/06/23 05:53:01;;;;;;;5.20;4.70;;;;;;;17.80;64.07;100486.28;5064772;28;20201;-79
2022/06/23 05:55:34;;;;;;;4.97;4.47;;;;;;;17.86;63.65;100509.81;5064369;28;20678;-78
2022/06/23 05:58:06;;;;;;;5.13;4.67;;;;;;;17.90;63.40;100508.75;5064198;28;20204;-79
2022/06/23 06:00:39;;;;;;;4.60;4.30;;;;;;;17.96;63.14;100518.16;5064234;28;20631;-78
2022/06/23 06:03:14;;;;;;;4.87;4.47;;;;;;;18.01;62.61;100537.25;5063177;28;20197;-78
2022/06/23 06:05:44;;;;;;;6.77;4.73;;;;;;;18.06;63.44;100537.91;5065431;28;20249;-78
2022/06/23 06:08:18;;;;;;;5.47;4.27;;;;;;;18.13;63.35;100531.38;5062751;28;20213;-78
2022/06/23 06:10:47;;;;;;;4.73;4.33;;;;;;;18.19;62.96;100536.34;5066936;28;20710;-79
2022/06/23 06:13:17;;;;;;;4.30;3.77;;;;;;;18.26;62.07;100555.44;5063598;28;20214;-78
2022/06/23 06:15:48;;;;;;;4.27;3.90;;;;;;;18.33;62.49;100559.47;5064342;28;20201;-79
2022/06/23 06:18:21;;;;;;;3.93;3.60;;;;;;;18.42;62.43;100558.16;5061578;28;20203;-77
2022/06/23 06:20:48;;;;;;;3.90;3.60;;;;;;;18.49;61.96;100572.78;5068466;28;20227;-80
2022/06/23 06:23:22;;;;;;;6.30;4.37;;;;;;;18.57;61.86;100580.31;5073850;28;20237;-77
2022/06/23 06:25:50;;;;;;;3.90;3.60;;;;;;;18.62;62.06;100573.03;5073785;28;20230;-78
2022/06/23 06:28:19;;;;;;;4.47;4.07;;;;;;;18.67;61.71;100568.34;5072881;28;20273;-78
2022/06/23 06:30:54;;;;;;;4.13;3.83;;;;;;;18.74;61.18;100582.13;5073282;28;20775;-78
2022/06/23 06:33:32;;;;;;;9.00;3.80;;;;;;;18.79;61.46;100580.09;5073874;28;20208;-78
2022/06/23 06:35:59;;;;;;;5.50;3.93;;;;;;;18.87;61.62;100587.66;5072944;28;20204;-78
2022/06/23 06:38:29;;;;;;;5.07;4.23;;;;;;;18.94;61.64;100583.78;5070548;28;20211;-78
2022/06/23 06:40:58;;;;;;;6.57;4.07;;;;;;;18.97;62.94;100565.97;5073668;28;20246;-78
2022/06/23 06:43:32;;;;;;;4.43;3.90;;;;;;;19.00;62.59;100546.44;5073122;28;20213;-78
2022/06/23 06:45:59;;;;;;;4.20;3.80;;;;;;;19.04;63.22;100542.69;5072766;28;20228;-78
2022/06/23 06:48:29;;;;;;;4.10;3.70;;;;;;;19.08;63.13;100527.50;5073167;28;20205;-77
2022/06/23 06:51:00;;;;;;;3.97;3.70;;;;;;;19.13;63.33;100528.13;5073732;28;20233;-78
2022/06/23 06:53:33;;;;;;;4.43;3.60;;;;;;;19.16;64.12;100520.00;5073652;28;20212;-78
2022/06/23 06:56:06;;;;;;;4.03;3.73;;;;;;;19.24;63.08;100528.41;5074004;28;20203;-78
2022/06/23 06:58:39;;;;;;;4.67;3.50;;;;;;;19.32;63.69;100535.94;5072967;28;20611;-78
2022/06/23 07:01:09;;;;;;;7.23;3.67;;;;;;;19.40;63.14;100547.78;5073566;28;20736;-78
2022/06/23 07:03:38;;;;;;;4.23;3.40;;;;;;;19.50;63.52;100542.00;5073453;28;20238;-78
2022/06/23 07:06:09;;;;;;;4.13;3.80;;;;;;;19.55;63.02;100542.63;5074318;28;20261;-78
2022/06/23 07:08:42;;;;;;;4.63;3.67;;;;;;;19.62;63.24;100547.50;5067201;28;20210;-77
2022/06/23 07:11:15;;;;;;;4.50;4.10;;;;;;;19.69;62.72;100552.47;5071776;28;20211;-78
2022/06/23 07:13:46;;;;;;;3.40;3.07;;;;;;;19.74;62.73;100567.22;5075461;28;20208;-78
2022/06/23 07:16:18;;;;;;;4.83;4.13;;;;;;;19.81;63.75;100535.91;5074193;28;20204;-77
2022/06/23 07:18:54;;;;;;;4.23;3.33;;;;;;;19.87;63.68;100524.13;5074793;28;20207;-79
2022/06/23 07:21:25;;;;;;;5.23;3.97;;;;;;;19.94;63.41;100541.38;5074925;28;20260;-79
2022/06/23 07:23:57;;;;;;;4.13;3.83;;;;;;;20.01;63.25;100524.19;5074014;28;20216;-78
2022/06/23 07:26:34;;;;;;;4.17;3.77;;;;;;;20.08;63.00;100548.53;5074264;28;20257;-79
2022/06/23 07:29:08;;;;;;;5.93;3.90;;;;;;;20.12;62.47;100560.66;5074165;28;20232;-77
2022/06/23 07:31:43;;;;;;;3.60;3.30;;;;;;;20.18;61.56;100582.41;5074317;28;20204;-79
2022/06/23 07:34:12;;;;;;;3.80;3.50;;;;;;;20.24;61.40;100605.91;5074320;28;20200;-79
2022/06/23 07:36:44;;;;;;;4.07;3.77;;;;;;;20.31;61.92;100595.78;5073752;28;20209;-78
2022/06/23 07:39:16;;;;;;;4.87;3.60;;;;;;;20.43;61.06;100592.47;5062078;28;20229;-78
2022/06/23 07:41:48;;;;;;;3.63;3.17;;;;;;;20.53;60.95;100608.66;5072941;28;20260;-78
2022/06/23 07:44:20;;;;;;;3.17;2.90;;;;;;;20.58;60.93;100616.38;5073161;28;20216;-78
2022/06/23 07:46:46;;;;;;;3.90;3.60;;;;;;;20.64;60.81;100616.06;5072482;28;20278;-78
2022/06/23 07:49:13;;;;;;;3.67;3.20;;;;;;;20.73;61.32;100612.88;5072331;28;20585;-78
2022/06/23 07:51:41;;;;;;;3.77;3.33;;;;;;;20.80;60.68;100610.72;5073409;28;20258;-78
2022/06/23 07:54:11;;;;;;;3.17;2.87;;;;;;;20.84;60.45;100622.84;5073130;28;20205;-77
2022/06/23 07:56:39;;;;;;;3.33;3.03;;;;;;;20.94;59.36;100649.69;5074443;28;20200;-78
2022/06/23 07:59:10;;;;;;;2.90;2.63;;;;;;;21.01;59.01;100659.00;5076501;28;20810;-78
2022/06/23 08:01:43;;;;;;;3.07;2.87;;;;;;;21.07;59.34;100660.44;5076492;28;20256;-78
2022/06/23 08:04:16;;;;;;;3.53;3.23;;;;;;;21.15;58.44;100682.06;5076598;28;20208;-78
2022/06/23 08:06:43;;;;;;;2.90;2.70;;;;;;;21.20;58.46;100690.63;5076085;28;20225;-77
2022/06/23 08:09:30;;;;;;;3.23;2.90;;;;;;;21.27;57.99;100701.72;5073171;28;20756;-77
2022/06/23 08:14:50;;;;;;;3.30;3.00;;;;;;;21.41;57.22;100707.94;5075371;28;20203;-77
2022/06/23 08:17:17;;;;;;;3.40;3.07;;;;;;;21.46;57.27;100706.81;5073689;28;20227;-77
2022/06/23 08:19:49;;;;;;;2.90;2.70;;;;;;;21.54;56.64;100739.09;5075234;28;20221;-78
2022/06/23 08:22:19;;;;;;;3.50;2.40;;;;;;;21.63;56.46;100745.66;5075235;28;20205;-77
2022/06/23 08:24:49;;;;;;;5.33;3.33;;;;;;;21.69;56.01;100758.59;5075299;28;20255;-78
2022/06/23 08:27:21;;;;;;;3.77;2.90;;;;;;;21.76;55.63;100766.09;5075053;28;20336;-77
2022/06/23 08:29:54;;;;;;;4.40;3.30;;;;;;;21.84;56.01;100764.75;5074434;28;20456;-78
2022/06/23 08:32:21;;;;;;;3.20;2.90;;;;;;;21.95;55.82;100738.38;5075656;28;20442;-78
2022/06/23 08:34:57;;;;;;;3.77;2.83;;;;;;;22.01;55.67;100757.44;5075282;28;20204;-78
2022/06/23 08:37:24;;;;;;;3.60;3.30;;;;;;;22.10;55.32;100764.03;5075498;28;20613;-77
2022/06/23 08:39:56;;;;;;;3.40;3.10;;;;;;;22.16;55.70;100763.63;5064877;28;20224;-77
2022/06/23 08:42:30;;;;;;;3.07;2.87;;;;;;;22.23;55.32;100749.94;5075212;28;20205;-77
2022/06/23 08:45:03;;;;;;;3.27;2.73;;;;;;;22.32;55.01;100773.31;5074510;28;20564;-77
2022/06/23 08:47:41;;;;;;;3.93;3.00;;;;;;;22.39;55.42;100769.34;5074287;28;20224;-78
2022/06/23 08:50:14;;;;;;;3.77;2.53;;;;;;;22.48;54.11;100779.41;5074291;28;20638;-78
2022/06/23 08:52:47;;;;;;;4.00;3.00;;;;;;;22.54;55.24;100773.69;5075579;28;20274;-78
2022/06/23 08:55:17;;;;;;;3.37;3.07;;;;;;;22.58;54.65;100761.91;5075901;28;20635;-77
2022/06/23 08:57:50;;;;;;;3.10;2.90;;;;;;;22.69;52.34;100795.78;5073264;28;20927;-78
2022/06/23 09:00:21;;;;;;;2.97;2.70;;;;;;;22.77;52.52;100845.88;5075493;28;20225;-78
2022/06/23 09:02:56;;;;;;;2.63;2.43;;;;;;;22.87;52.68;100814.19;5075257;28;20205;-78
2022/06/23 09:05:35;;;;;;;2.60;2.40;;;;;;;22.94;52.45;100835.00;5075237;28;20230;-78
2022/06/23 09:08:08;;;;;;;2.97;2.77;;;;;;;22.98;51.33;100851.66;5072698;28;20690;-77
2022/06/23 09:10:45;;;;;;;2.73;2.50;;;;;;;23.03;51.57;100872.66;5073729;28;20217;-76
2022/06/23 09:13:42;;;;;;;2.83;2.40;;;;;;;23.05;52.05;100844.13;5080101;28;20292;-76
2022/06/23 09:16:27;;;;;;;2.70;2.50;;;;;;;23.16;51.20;100842.47;5077009;28;20217;-78
2022/06/23 09:19:18;;;;;;;4.80;2.73;;;;;;;23.30;53.34;100832.75;5074658;28;20205;-77
2022/06/23 09:22:02;;;;;;;4.03;2.73;;;;;;;23.39;51.84;100834.81;5074518;28;20266;-78
2022/06/23 09:24:53;;;;;;;3.13;2.93;;;;;;;23.47;50.55;100866.25;5070769;28;20619;-77
2022/06/23 09:27:34;;;;;;;2.57;2.37;;;;;;;23.57;51.26;100860.22;5072213;28;20280;-78
2022/06/23 09:30:07;;;;;;;2.77;2.50;;;;;;;23.68;50.34;100850.63;5073678;28;20640;-77
2022/06/23 09:32:48;;;;;;;6.23;2.87;;;;;;;23.77;50.79;100850.03;5073590;28;21337;-77
2022/06/23 09:35:35;;;;;;;3.70;2.60;;;;;;;23.84;49.88;100891.31;5073781;28;20274;-78
2022/06/23 09:38:26;;;;;;;2.73;2.53;;;;;;;23.93;49.26;100882.72;5071331;28;20252;-77
2022/06/23 09:41:03;;;;;;;3.37;3.17;;;;;;;24.01;49.53;100938.19;5060016;28;20251;-77
2022/06/23 09:43:49;;;;;;;3.83;2.83;;;;;;;24.13;48.03;100889.34;5073151;28;20265;-78
2022/06/23 09:46:45;;;;;;;2.97;2.80;;;;;;;24.23;49.38;100942.94;5073277;28;20243;-77
2022/06/23 09:49:31;;;;;;;6.40;2.83;;;;;;;24.29;48.00;100944.31;5073683;28;20255;-78
2022/06/23 09:52:13;;;;;;;4.53;3.13;;;;;;;24.38;49.49;100933.88;5074020;28;20744;-78
2022/06/23 09:55:14;;;;;;;3.43;2.40;;;;;;;24.51;46.22;100928.56;5074030;28;20200;-78
2022/06/23 09:58:00;;;;;;;2.50;2.40;;;;;;;24.64;45.85;101034.47;5073765;28;20355;-78
2022/06/23 10:00:39;;;;;;;2.40;2.17;;;;;;;24.77;46.42;100985.47;5073972;28;20239;-78
2022/06/23 10:03:22;;;;;;;2.90;2.30;;;;;;;24.86;46.05;101000.00;5073269;28;20263;-78
2022/06/23 10:06:12;;;;;;;2.80;2.60;;;;;;;24.91;44.40;100994.31;5072738;28;20216;-78
2022/06/23 10:08:46;;;;;;;1.97;1.80;;;;;;;25.00;40.96;101073.81;5072025;28;20628;-78
2022/06/23 10:11:39;;;;;;;2.33;1.93;;;;;;;25.11;40.23;101118.47;5074431;28;20622;-78
2022/06/23 10:14:19;;;;;;;2.23;1.90;;;;;;;25.14;38.58;101191.28;5073064;28;20218;-78
2022/06/23 10:17:05;;;;;;;3.43;2.77;;;;;;;25.17;42.22;101219.59;5072821;28;20250;-78
2022/06/23 10:19:47;;;;;;;2.93;2.40;;;;;;;25.22;42.57;101134.66;5073969;28;20576;-78
2022/06/23 10:22:28;;;;;;;2.70;2.27;;;;;;;25.30;43.48;101100.25;5075181;28;20258;-78
2022/06/23 10:25:10;;;;;;;3.33;2.60;;;;;;;25.42;41.54;101119.06;5072951;28;20631;-78
2022/06/23 10:28:02;;;;;;;2.10;1.93;;;;;;;25.47;38.04;101227.38;5071979;28;20500;-77
2022/06/23 10:30:38;;;;;;;2.83;2.20;;;;;;;25.61;40.24;101220.19;5072238;28;20375;-77
2022/06/23 10:33:26;;;;;;;3.37;2.60;;;;;;;25.69;43.07;101161.72;5072499;28;20212;-77
2022/06/23 10:36:13;;;;;;;2.47;2.37;;;;;;;25.82;42.87;101110.84;5072306;28;20208;-77
2022/06/23 10:38:50;;;;;;;4.83;2.37;;;;;;;25.90;44.75;101101.31;5069370;28;20214;-77
2022/06/23 10:41:38;;;;;;;2.67;2.50;;;;;;;25.98;42.10;101075.84;5072019;28;20215;-77
2022/06/23 10:44:29;;;;;;;2.47;2.33;;;;;;;26.05;41.26;101094.00;5071942;28;20667;-77
2022/06/23 10:47:10;;;;;;;2.27;2.17;;;;;;;26.07;39.82;101140.22;5072113;28;20225;-77
2022/06/23 10:49:59;;;;;;;3.33;2.33;;;;;;;26.23;43.86;101152.50;5072032;28;20251;-77
2022/06/23 10:52:43;;;;;;;2.20;2.10;;;;;;;26.32;39.30;101125.91;5072174;28;20208;-77
2022/06/23 10:55:36;;;;;;;2.67;2.47;;;;;;;26.44;39.36;101107.19;5071951;28;20211;-77
2022/06/23 10:58:23;;;;;;;2.47;2.30;;;;;;;26.49;37.77;101191.56;5071838;28;20242;-77
2022/06/23 11:00:59;;;;;;;3.07;2.77;;;;;;;26.53;39.83;101150.19;5072181;28;20714;-78
2022/06/23 11:03:53;;;;;;;3.17;2.67;;;;;;;26.70;39.87;101132.91;5072353;28;20226;-78
2022/06/23 11:06:31;;;;;;;2.50;2.30;;;;;;;26.84;37.92;101155.97;5071929;28;20208;-77
2022/06/23 11:09:23;;;;;;;2.30;2.10;;;;;;;26.87;37.14;101190.53;5062329;28;20229;-77
2022/06/23 11:12:04;;;;;;;2.90;2.70;;;;;;;26.99;37.92;101212.88;5051939;28;20267;-77
2022/06/23 11:14:43;;;;;;;2.43;2.23;;;;;;;27.01;36.45;101154.66;5052053;28;20205;-77
2022/06/23 11:17:20;;;;;;;2.43;2.23;;;;;;;27.16;37.19;101205.38;5051586;28;20686;-77
2022/06/23 11:19:59;;;;;;;4.13;2.50;;;;;;;27.31;38.57;101132.72;5051979;28;20251;-77
2022/06/23 11:22:40;;;;;;;4.13;2.70;;;;;;;27.47;40.96;101144.88;5051614;28;20201;-77
2022/06/23 11:25:34;;;;;;;2.60;2.40;;;;;;;27.59;34.94;101154.66;5052395;28;20420;-77
2022/06/23 11:28:11;;;;;;;2.53;2.30;;;;;;;27.81;35.14;101182.44;5046172;28;20723;-77
2022/06/23 11:30:50;;;;;;;2.70;2.50;;;;;;;28.15;34.13;101180.59;5052504;28;20228;-77
2022/06/23 11:33:44;;;;;;;2.83;2.17;;;;;;;28.52;36.22;101234.00;5056445;28;20737;-78
2022/06/23 11:36:18;;;;;;;2.37;2.10;;;;;;;29.07;31.43;101233.91;5056831;28;20667;-78
2022/06/23 11:39:06;;;;;;;2.60;2.50;;;;;;;30.13;31.99;101269.69;5062933;28;20238;-78
2022/06/23 11:41:54;;;;;;;2.70;2.50;;;;;;;31.60;31.25;101282.38;5078402;28;20663;-78
2022/06/23 11:44:35;;;;;;;3.33;2.20;;;;;;;33.02;28.60;101348.72;5078396;28;20238;-78
2022/06/23 11:47:09;;;;;;;3.17;2.20;;;;;;;33.85;26.32;101403.63;5077582;28;20643;-79
2022/06/23 11:49:48;;;;;;;2.53;2.30;;;;;;;34.65;24.87;101415.16;5077216;28;20228;-79
2022/06/23 11:52:31;;;;;;;2.43;2.13;;;;;;;35.71;24.70;101430.88;5076868;28;20277;-77
2022/06/23 11:55:17;;;;;;;3.17;2.60;;;;;;;36.69;21.10;101380.88;5075553;28;20208;-77
2022/06/23 11:58:05;;;;;;;4.10;2.60;;;;;;;37.93;21.77;101422.53;5075586;28;20236;-77
2022/06/23 12:00:41;;;;;;;2.58;2.38;;;;;;;38.17;22.41;101415.19;5075688;28;20217;-77
2022/06/23 12:03:21;;;;;;;2.42;2.33;;;;;;;38.14;20.39;101348.22;5062462;28;20702;-77
2022/06/23 12:05:57;;;;;;;2.50;2.40;;;;;;;38.51;20.99;101394.66;5057611;28;20209;-77
2022/06/23 12:08:38;;;;;;;2.30;2.13;;;;;;;38.33;20.73;101351.41;5057384;28;20827;-77